createdAt,value
2022-08-05T00:02:07.711Z,23.70
2022-08-05T00:04:30.220Z,23.70
2022-08-05T00:06:59.378Z,23.60
2022-08-05T00:09:28.204Z,23.60
2022-08-05T00:11:59.779Z,23.70
2022-08-05T00:14:29.447Z,23.70
2022-08-05T00:17:01.948Z,23.60
2022-08-05T00:19:33.362Z,23.50
2022-08-05T00:22:00.027Z,23.50
2022-08-05T00:26:59.412Z,23.50
2022-08-05T00:32:13.086Z,23.20
2022-08-05T00:34:55.425Z,23.20
2022-08-05T00:37:10.574Z,23.20
2022-08-05T00:39:28.898Z,23.10
2022-08-05T00:41:59.132Z,23.00
2022-08-05T00:44:30.932Z,23.10
2022-08-05T00:47:04.226Z,23.00
2022-08-05T00:49:28.253Z,22.90
2022-08-05T00:51:58.484Z,22.90
2022-08-05T00:54:28.127Z,22.80
2022-08-05T00:56:57.407Z,22.80
2022-08-05T00:59:25.991Z,22.70
2022-08-05T01:01:56.332Z,22.70
2022-08-05T01:04:29.720Z,22.60
2022-08-05T01:06:55.147Z,22.60
2022-08-05T01:09:23.855Z,22.50
2022-08-05T01:11:58.925Z,22.50
2022-08-05T01:14:30.438Z,22.50
2022-08-05T01:17:05.898Z,22.40
2022-08-05T01:20:00.770Z,22.30
2022-08-05T01:22:47.066Z,22.30
2022-08-05T01:25:40.434Z,22.20
2022-08-05T01:28:41.535Z,22.20
2022-08-05T01:31:29.082Z,22.10
2022-08-05T01:34:26.749Z,21.90
2022-08-05T01:37:00.558Z,21.90
2022-08-05T01:39:45.998Z,21.80
2022-08-05T01:42:01.553Z,21.80
2022-08-05T01:44:34.173Z,21.80
2022-08-05T01:47:05.177Z,21.80
2022-08-05T01:50:01.358Z,21.90
2022-08-05T01:52:17.486Z,21.80
2022-08-05T01:54:49.021Z,21.90
2022-08-05T01:58:11.777Z,21.90
2022-08-05T02:00:01.810Z,21.90
2022-08-05T02:02:32.721Z,21.90
2022-08-05T02:05:05.599Z,21.80
2022-08-05T02:07:37.632Z,21.80
2022-08-05T02:10:07.993Z,21.90
2022-08-05T02:13:15.901Z,21.90
2022-08-05T02:16:16.368Z,21.90
2022-08-05T02:18:52.760Z,21.90
2022-08-05T02:21:24.917Z,21.80
2022-08-05T02:23:57.180Z,21.60
2022-08-05T02:26:28.896Z,21.70
2022-08-05T02:28:58.527Z,21.60
2022-08-05T02:31:35.617Z,21.60
2022-08-05T02:34:11.869Z,21.50
2022-08-05T02:36:49.026Z,21.50
2022-08-05T02:39:21.550Z,21.50
2022-08-05T02:42:00.581Z,21.50
2022-08-05T02:44:23.958Z,21.50
2022-08-05T02:47:00.112Z,21.50
2022-08-05T02:49:44.820Z,21.40
2022-08-05T02:52:29.849Z,21.40
2022-08-05T02:54:50.678Z,21.50
2022-08-05T02:58:09.414Z,21.50
2022-08-05T02:59:53.947Z,21.50
2022-08-05T03:02:27.539Z,21.50
2022-08-05T03:04:58.775Z,21.40
2022-08-05T03:08:00.849Z,21.50
2022-08-05T03:09:59.411Z,21.50
2022-08-05T03:12:35.798Z,21.40
2022-08-05T03:15:09.465Z,21.50
2022-08-05T03:17:41.575Z,21.40
2022-08-05T03:20:11.131Z,21.30
2022-08-05T03:22:46.953Z,21.60
2022-08-05T03:26:02.576Z,21.50
2022-08-05T03:27:59.562Z,21.50
2022-08-05T03:30:14.204Z,21.50
2022-08-05T03:32:44.556Z,21.50
2022-08-05T03:35:21.888Z,21.50
2022-08-05T03:37:50.544Z,21.50
2022-08-05T03:40:24.387Z,21.50
2022-08-05T03:42:52.465Z,21.50
2022-08-05T03:45:23.580Z,21.50
2022-08-05T03:47:57.027Z,21.50
2022-08-05T03:50:22.994Z,21.50
2022-08-05T03:55:54.081Z,21.60
2022-08-05T03:56:11.985Z,21.60
2022-08-05T03:58:27.142Z,21.70
2022-08-05T04:00:56.003Z,21.70
2022-08-05T04:03:28.890Z,21.70
2022-08-05T04:05:56.658Z,21.70
2022-08-05T04:08:34.819Z,21.70
2022-08-05T04:11:03.169Z,21.70
2022-08-05T04:13:51.222Z,21.70
2022-08-05T04:16:04.965Z,21.70
2022-08-05T04:18:34.484Z,21.70
2022-08-05T04:21:05.059Z,21.70
2022-08-05T04:24:05.452Z,21.70
2022-08-05T04:28:35.730Z,21.70
2022-08-05T04:31:08.295Z,21.70
2022-08-05T04:36:10.962Z,21.60
2022-08-05T04:38:39.971Z,21.50
2022-08-05T04:41:09.585Z,21.50
2022-08-05T04:43:48.147Z,21.50
2022-08-05T04:46:12.265Z,21.50
2022-08-05T04:48:41.760Z,21.40
2022-08-05T04:51:12.102Z,21.40
2022-08-05T04:53:42.185Z,21.40
2022-08-05T04:56:33.341Z,21.30
2022-08-05T04:58:41.274Z,21.40
2022-08-05T05:01:10.161Z,21.30
2022-08-05T05:03:41.916Z,21.40
2022-08-05T05:06:38.982Z,21.40
2022-08-05T05:08:42.780Z,21.30
2022-08-05T05:11:11.944Z,21.40
2022-08-05T05:13:43.055Z,21.40
2022-08-05T05:16:12.334Z,21.40
2022-08-05T05:18:57.085Z,21.40
2022-08-05T05:21:14.060Z,21.40
2022-08-05T05:24:08.816Z,21.50
2022-08-05T05:26:33.032Z,21.40
2022-08-05T05:29:02.158Z,21.40
2022-08-05T05:34:02.999Z,21.10
2022-08-05T05:36:37.350Z,21.60
2022-08-05T05:39:05.565Z,21.60
2022-08-05T05:41:40.581Z,21.60
2022-08-05T05:44:35.445Z,21.60
2022-08-05T05:46:36.889Z,21.60
2022-08-05T05:49:22.635Z,21.70
2022-08-05T05:51:49.867Z,21.70
2022-08-05T05:54:07.640Z,21.60
2022-08-05T05:56:37.872Z,21.60
2022-08-05T05:59:07.971Z,21.60
2022-08-05T06:01:39.812Z,21.60
2022-08-05T06:04:11.341Z,21.50
2022-08-05T06:06:42.992Z,21.60
2022-08-05T06:09:17.621Z,21.80
2022-08-05T06:11:42.857Z,21.60
2022-08-05T06:14:13.099Z,21.60
2022-08-05T06:16:41.683Z,21.60
2022-08-05T06:19:12.528Z,21.50
2022-08-05T06:21:49.836Z,21.50
2022-08-05T06:24:14.672Z,21.50
2022-08-05T06:26:45.886Z,21.40
2022-08-05T06:29:25.378Z,21.50
2022-08-05T06:31:43.557Z,21.40
2022-08-05T06:34:13.786Z,21.20
2022-08-05T06:36:57.333Z,21.40
2022-08-05T06:39:14.518Z,21.40
2022-08-05T06:41:43.085Z,21.40
2022-08-05T06:44:12.315Z,21.40
2022-08-05T06:46:40.914Z,21.30
2022-08-05T06:49:12.067Z,21.30
2022-08-05T06:51:40.985Z,21.30
2022-08-05T06:54:09.615Z,21.30
2022-08-05T06:56:40.010Z,21.20
2022-08-05T06:59:11.822Z,21.20
2022-08-05T07:01:43.087Z,20.80
2022-08-05T07:04:13.982Z,21.10
2022-08-05T07:06:42.961Z,21.10
2022-08-05T07:09:11.609Z,21.00
2022-08-05T07:11:43.085Z,21.10
2022-08-05T07:14:32.210Z,20.90
2022-08-05T07:17:58.902Z,20.90
2022-08-05T07:22:05.164Z,20.80
2022-08-05T07:24:43.905Z,20.70
2022-08-05T07:27:08.966Z,20.60
2022-08-05T07:30:22.172Z,20.60
2022-08-05T07:32:07.085Z,20.50
2022-08-05T07:34:40.470Z,20.60
2022-08-05T07:37:06.425Z,20.60
2022-08-05T07:40:04.225Z,20.60
2022-08-05T07:42:15.019Z,20.60
2022-08-05T07:44:37.278Z,20.60
2022-08-05T07:47:07.972Z,20.50
2022-08-05T07:49:43.641Z,20.50
2022-08-05T07:52:08.048Z,20.50
2022-08-05T07:54:41.182Z,20.50
2022-08-05T07:57:16.904Z,20.50
2022-08-05T07:59:40.349Z,20.50
2022-08-05T08:02:16.794Z,20.50
2022-08-05T08:04:43.113Z,20.50
2022-08-05T08:07:14.896Z,20.50
2022-08-05T08:09:45.590Z,20.40
2022-08-05T08:12:37.284Z,20.50
2022-08-05T08:14:46.738Z,20.50
2022-08-05T08:17:16.450Z,20.40
2022-08-05T08:20:21.889Z,20.30
2022-08-05T08:22:16.829Z,20.30
2022-08-05T08:24:51.537Z,20.20
2022-08-05T08:27:16.615Z,20.20
2022-08-05T08:30:05.938Z,20.20
2022-08-05T08:32:18.514Z,20.10
2022-08-05T08:34:46.628Z,20.20
2022-08-05T08:37:15.220Z,20.10
2022-08-05T08:39:49.656Z,20.10
2022-08-05T08:42:32.518Z,20.10
2022-08-05T08:45:18.732Z,20.10
2022-08-05T08:48:05.860Z,20.20
2022-08-05T08:50:14.689Z,20.10
2022-08-05T08:52:35.400Z,20.20
2022-08-05T08:55:04.586Z,20.30
2022-08-05T08:57:48.462Z,20.30
2022-08-05T09:00:08.479Z,20.30
2022-08-05T09:02:38.733Z,20.30
2022-08-05T09:05:17.870Z,20.40
2022-08-05T09:07:57.699Z,20.40
2022-08-05T09:10:11.322Z,20.40
2022-08-05T09:12:40.575Z,20.50
2022-08-05T09:15:11.081Z,20.50
2022-08-05T09:17:49.312Z,20.50
2022-08-05T09:20:36.164Z,20.50
2022-08-05T09:23:18.887Z,20.60
2022-08-05T09:26:03.413Z,20.60
